MRS weather

Marseille Provence Airport
Marseille, Provence-Alpes-Côte-d'Azur, France

Public forecast

Using degrees Celsius for public forecast. Weather courtesy of forecast.io.

Current aviation weather report (METAR) for Marseille Provence Airport

Retrieved 2019/12/05 16:30 UTC (23 minutes ago):

LFML 051630Z AUTO VRB03KT CAVOK 13/06 Q1022 NOSIG

Aviation forecast (TAF) for Marseille Provence Airport

Forecast is more than 12 hours old.

Retrieved 2019-12-05 03:24 UTC (13 hours ago):

TAF TAF LFML 050200Z 0503/0609 VRB05KT CAVOK TX12/0515Z TN06/0505Z